Latest Weather Observations for Portland Harbour

IDV60801

Issued at 3:42 pm EDT Saturday 22 February 2020 (issued every 10 minutes, with the page automatically refreshed every 10 minutes)

About weather observations | Map of weather stations | Latest weather observations for VIC | Other Formats
Station Details ID: 090192 Name: PORTLAND NTC AWS Lat: -38.34 Lon: 141.61 Height: 0.0 m
Data from the previous 72 hours. | See also: Recent months for locations in Victoria
Date/Time
EDT
Temp
°C
App
Temp
°C
Dew
Point
°C
Rel
Hum
%
Delta-T
°C
Wind Press
QNH
hPa
Press
MSL
hPa
Rain since
9am
mm
Dir  Spd
km/h
Gust
km/h
Spd
kts
Gust
kts
22/03:30pm 17.3 - - - - SE 22 28 12 15 1023.2 1023.2 -
22/03:00pm 17.2 - - - - SE 19 24 10 13 1023.5 1023.5 -
22/02:30pm 17.1 - - - - ESE 20 26 11 14 1023.7 1023.7 -
22/02:00pm 17.0 - - - - SE 20 32 11 17 1023.9 1023.9 -
22/01:30pm 17.3 - - - - ESE 19 24 10 13 1024.1 1024.1 -
22/01:00pm 17.1 - - - - SE 19 24 10 13 1024.5 1024.5 -
22/12:30pm 16.9 - - - - ESE 17 22 9 12 1024.8 1024.8 -
22/12:00pm 16.8 - - - - ESE 17 24 9 13 1024.9 1024.9 -
22/11:30am 16.8 - - - - ESE 17 24 9 13 1025.1 1025.1 -
22/11:00am 16.6 - - - - E 15 20 8 11 1025.2 1025.2 -
22/10:30am 16.2 - - - - E 17 22 9 12 1024.9 1024.9 -
22/10:00am 15.8 - - - - E 17 20 9 11 1024.9 1024.9 -
22/09:30am 15.6 - - - - ENE 13 20 7 11 1024.6 1024.6 -
22/09:00am 15.6 - - - - ENE 15 20 8 11 1024.4 1024.4 -
22/08:30am 15.3 - - - - ENE 17 24 9 13 1024.0 1024.0 -
22/08:00am 15.7 - - - - ESE 19 24 10 13 1023.6 1023.6 -
22/07:30am 15.7 - - - - ESE 19 28 10 15 1023.3 1023.3 -
22/07:00am 15.7 - - - - ESE 20 28 11 15 1023.2 1023.2 -
22/06:30am 15.7 - - - - ESE 17 24 9 13 1023.0 1023.0 -
22/06:00am 15.7 - - - - ESE 15 24 8 13 1022.9 1022.9 -
22/05:30am 15.7 - - - - SE 20 26 11 14 1022.9 1022.9 -
22/05:00am 15.9 - - - - SE 22 28 12 15 1023.0 1023.0 -
22/04:30am 15.6 - - - - SE 20 28 11 15 1023.1 1023.1 -
22/04:00am 15.7 - - - - SE 19 28 10 15 1023.3 1023.3 -
22/03:30am 15.7 - - - - SE 20 28 11 15 1023.4 1023.4 -
22/03:00am 15.6 - - - - ESE 20 24 11 13 1023.3 1023.3 -
22/02:30am 15.8 - - - - SE 22 28 12 15 1023.5 1023.5 -
22/02:00am 16.1 - - - - SE 20 28 11 15 1023.9 1023.9 -
22/01:30am 15.9 - - - - SE 24 30 13 16 1024.1 1024.1 -
22/01:00am 16.0 - - - - SE 20 30 11 16 1024.2 1024.2 -
22/12:30am 16.0 - - - - SE 20 32 11 17 1024.2 1024.2 -
22/12:00am 16.0 - - - - SE 22 28 12 15 1024.2 1024.2 -
 
Date/Time
EDT
Temp
°C
App
Temp
°C
Dew
Point
°C
Rel
Hum
%
Delta-T
°C
Wind Press
QNH
hPa
Press
MSL
hPa
Rain since
9am
mm
Dir  Spd
km/h
Gust
km/h
Spd
kts
Gust
kts
21/11:30pm 16.1 - - - - SE 20 28 11 15 1024.1 1024.1 -
21/11:00pm 16.2 - - - - SE 20 26 11 14 1023.9 1023.9 -
21/10:30pm 16.2 - - - - SE 20 28 11 15 1023.8 1023.8 -
21/10:00pm 16.1 - - - - SE 22 28 12 15 1023.7 1023.7 -
21/09:30pm 16.1 - - - - SE 22 30 12 16 1023.4 1023.4 -
21/09:00pm 16.0 - - - - SSE 20 28 11 15 1023.0 1023.0 -
21/08:30pm 16.0 - - - - SE 22 30 12 16 1022.8 1022.8 -
21/08:00pm 16.2 - - - - SSE 22 30 12 16 1022.7 1022.7 -
21/07:30pm 16.5 - - - - SE 22 30 12 16 1022.6 1022.6 -
21/07:00pm 16.5 - - - - SE 20 32 11 17 1022.4 1022.4 -
21/06:30pm 16.5 - - - - SE 19 32 10 17 1022.3 1022.3 -
21/06:00pm 16.7 - - - - SE 19 28 10 15 1022.1 1022.1 -
21/05:30pm 16.5 - - - - SE 15 28 8 15 1021.9 1021.9 -
21/05:00pm 16.5 - - - - ESE 13 28 7 15 1021.8 1021.8 -
21/04:30pm 16.5 - - - - ESE 13 26 7 14 1021.9 1021.9 -
21/04:00pm 16.4 - - - - ESE 13 26 7 14 1021.9 1021.9 -
21/03:30pm 16.4 - - - - ESE 15 28 8 15 1022.1 1022.1 -
21/03:00pm 16.6 - - - - ESE 15 32 8 17 1022.3 1022.3 -
21/02:30pm 17.0 - - - - SE 22 33 12 18 1022.5 1022.5 -
21/02:00pm 16.8 - - - - SSE 22 33 12 18 1022.5 1022.5 -
21/01:30pm 16.8 - - - - SE 15 28 8 15 1022.6 1022.6 -
21/01:00pm 16.5 - - - - ESE 11 24 6 13 1022.6 1022.6 -
21/12:30pm 16.7 - - - - SE 19 37 10 20 1022.7 1022.7 -
21/12:00pm 16.8 - - - - SE 19 30 10 16 1022.6 1022.6 -
21/11:30am 16.7 - - - - SE 19 28 10 15 1022.5 1022.5 -
21/11:00am 16.6 - - - - SE 20 32 11 17 1022.2 1022.2 -
21/10:30am 16.2 - - - - SSE 11 20 6 11 1022.0 1022.0 -
21/10:00am 15.2 - - - - SSE 20 33 11 18 1021.7 1021.7 -
21/09:30am 15.2 - - - - S 17 22 9 12 1021.5 1021.5 -
21/09:00am 15.7 - - - - SSE 15 24 8 13 1021.0 1021.0 -
21/08:30am 16.0 - - - - S 15 20 8 11 1020.7 1020.7 -
21/08:00am 15.9 - - - - S 19 28 10 15 1020.2 1020.2 -
21/07:30am 15.5 - - - - SSE 13 17 7 9 1019.8 1019.8 -
21/07:00am 15.6 - - - - S 17 22 9 12 1019.4 1019.4 -
21/06:30am 15.4 - - - - S 15 22 8 12 1019.0 1019.0 -
21/06:00am 15.2 - - - - S 17 22 9 12 1019.0 1019.0 -
21/05:30am 15.2 - - - - S 15 22 8 12 1019.0 1019.0 -
21/05:00am 15.1 - - - - S 13 19 7 10 1018.9 1018.9 -
21/04:30am 15.1 - - - - S 15 20 8 11 1018.8 1018.8 -
21/04:00am 15.2 - - - - S 15 20 8 11 1018.7 1018.7 -
21/03:30am 14.1 - - - - WSW 6 9 3 5 1018.7 1018.7 -
21/03:00am 14.2 - - - - SW 7 11 4 6 1018.8 1018.8 -
21/02:30am 13.9 - - - - SW 9 15 5 8 1019.1 1019.1 -
21/02:00am 14.7 - - - - SSW 15 30 8 16 1019.3 1019.3 -
21/01:30am 14.7 - - - - SW 7 11 4 6 1019.3 1019.3 -
21/01:00am 14.7 - - - - SW 11 17 6 9 1019.4 1019.4 -
21/12:30am 15.2 - - - - SW 13 20 7 11 1019.5 1019.5 -
21/12:00am 15.0 - - - - SSW 9 13 5 7 1019.5 1019.5 -
 
Date/Time
EDT
Temp
°C
App
Temp
°C
Dew
Point
°C
Rel
Hum
%
Delta-T
°C
Wind Press
QNH
hPa
Press
MSL
hPa
Rain since
9am
mm
Dir  Spd
km/h
Gust
km/h
Spd
kts
Gust
kts
20/11:30pm 15.3 - - - - SSW 17 22 9 12 1019.5 1019.5 -
20/11:00pm 15.7 - - - - SSW 13 19 7 10 1019.6 1019.6 -
20/10:30pm 15.9 - - - - SSW 13 17 7 9 1019.5 1019.5 -
20/10:00pm 15.8 - - - - SW 7 15 4 8 1019.3 1019.3 -
20/09:30pm 15.6 - - - - SSW 9 15 5 8 1019.1 1019.1 -
20/09:00pm 15.2 - - - - WSW 9 15 5 8 1018.9 1018.9 -
20/08:30pm 15.2 - - - - SW 15 20 8 11 1018.5 1018.5 -
20/08:00pm 15.3 - - - - SW 17 24 9 13 1018.2 1018.2 -
20/07:30pm 15.9 - - - - S 20 26 11 14 1017.8 1017.8 -
20/07:00pm 15.8 - - - - SSW 19 26 10 14 1017.7 1017.7 -
20/06:30pm 15.2 - - - - SW 17 20 9 11 1017.6 1017.6 -
20/06:00pm 16.0 - - - - SSW 19 22 10 12 1017.4 1017.4 -
20/05:30pm 16.1 - - - - S 22 30 12 16 1017.3 1017.3 -
20/05:00pm 15.7 - - - - S 20 28 11 15 1017.5 1017.5 -
20/04:30pm 15.9 - - - - S 24 32 13 17 1017.5 1017.5 -
20/04:00pm 15.9 - - - - S 24 32 13 17 1017.5 1017.5 -
20/03:30pm 15.5 - - - - S 22 30 12 16 1017.7 1017.7 -
20/03:00pm 16.1 - - - - S 17 24 9 13 1017.8 1017.8 -
20/02:30pm 15.7 - - - - S 17 22 9 12 1018.0 1018.0 -
20/02:00pm 15.6 - - - - SSW 20 28 11 15 1018.0 1018.0 -
20/01:30pm 15.2 - - - - SSW 22 32 12 17 1018.2 1018.2 -
20/01:00pm 15.9 - - - - SSW 19 24 10 13 1018.3 1018.3 -
20/12:30pm 16.2 - - - - SSW 19 26 10 14 1018.5 1018.5 -
20/12:00pm 16.2 - - - - S 17 24 9 13 1018.5 1018.5 -
20/11:30am 15.9 - - - - S 20 30 11 16 1018.5 1018.5 -
20/11:00am 15.8 - - - - S 15 22 8 12 1018.4 1018.4 -
20/10:30am 15.8 - - - - S 20 28 11 15 1018.3 1018.3 -
20/10:00am 15.1 - - - - SSW 13 24 7 13 1018.0 1018.0 -
20/09:30am 13.5 - - - - SSE 15 20 8 11 1018.1 1018.1 -
20/09:00am 13.9 - - - - SSE 13 17 7 9 1017.6 1017.6 -
20/08:30am 14.4 - - - - S 24 33 13 18 1017.2 1017.2 -
20/08:00am 14.6 - - - - SSW 13 19 7 10 1017.0 1017.0 -
20/07:30am 14.6 - - - - S 22 30 12 16 1016.6 1016.6 -
20/07:00am 14.4 - - - - SSW 13 17 7 9 1016.3 1016.3 -
20/06:30am 14.2 - - - - SW 19 26 10 14 1016.2 1016.2 -
20/06:00am 15.1 - - - - SSW 13 19 7 10 1015.9 1015.9 -
20/05:30am 15.0 - - - - S 15 20 8 11 1015.9 1015.9 -
20/05:00am 15.2 - - - - S 19 28 10 15 1015.9 1015.9 -
20/04:30am 15.3 - - - - S 11 17 6 9 1015.8 1015.8 -
20/04:00am 15.4 - - - - S 19 24 10 13 1015.7 1015.7 -
20/03:30am 15.3 - - - - S 15 24 8 13 1016.1 1016.1 -
20/03:00am 15.5 - - - - S 17 24 9 13 1016.3 1016.3 -
20/02:30am 15.4 - - - - S 13 20 7 11 1016.5 1016.5 -
20/02:00am 15.3 - - - - S 17 24 9 13 1016.6 1016.6 -
20/01:30am 15.4 - - - - S 19 26 10 14 1016.9 1016.9 -
20/01:00am 15.5 - - - - S 22 32 12 17 1016.9 1016.9 -
20/12:30am 15.6 - - - - S 17 26 9 14 1017.0 1017.0 -
20/12:00am 15.6 - - - - S 15 24 8 13 1016.9 1016.9 -
 
Date/Time
EDT
Temp
°C
App
Temp
°C
Dew
Point
°C
Rel
Hum
%
Delta-T
°C
Wind Press
QNH
hPa
Press
MSL
hPa
Rain since
9am
mm
Dir  Spd
km/h
Gust
km/h
Spd
kts
Gust
kts
19/11:30pm 15.6 - - - - S 15 24 8 13 1016.9 1016.9 -
19/11:00pm 15.5 - - - - S 19 22 10 12 1017.2 1017.2 -
19/10:30pm 15.5 - - - - S 19 26 10 14 1017.3 1017.3 -
19/10:00pm 15.6 - - - - S 17 24 9 13 1017.2 1017.2 -
19/09:30pm 15.8 - - - - SSW 19 24 10 13 1016.9 1016.9 -
19/09:00pm 15.6 - - - - S 22 30 12 16 1016.7 1016.7 -
19/08:30pm 15.7 - - - - S 17 24 9 13 1016.3 1016.3 -
19/08:00pm 15.7 - - - - S 20 30 11 16 1016.4 1016.4 -
19/07:30pm 16.2 - - - - S 28 43 15 23 1016.4 1016.4 -
19/07:00pm 16.4 - - - - S 28 37 15 20 1016.5 1016.5 -
19/06:30pm 16.5 - - - - S 26 37 14 20 1016.1 1016.1 -
19/06:00pm 16.1 - - - - SSW 30 43 16 23 1016.0 1016.0 -
19/05:30pm 16.2 - - - - SSW 33 44 18 24 1016.0 1016.0 -
19/05:00pm 16.5 - - - - SSW 32 41 17 22 1016.3 1016.3 -
19/04:30pm 16.1 - - - - SSW 33 43 18 23 1016.2 1016.2 -
19/04:00pm 16.6 - - - - SSW 32 46 17 25 1015.9 1015.9 -

Other formats

Comma delimited format used in spreadsheet applications
http://www.bom.gov.au/fwo/IDV60801/IDV60801.95826.axf

JavaScript Object Notation format (JSON) in row-major order
http://www.bom.gov.au/fwo/IDV60801/IDV60801.95826.json

Data quality

Most of these data are generated automatically and are frequently updated. Quality checks on data are not normally performed. It is possible for incorrect values to appear. Refer to information at About Latest Weather Observations and please check the disclaimer before using these data.